createdAt,value
2018-09-23T00:02:13.786Z,14.80
2018-09-23T00:04:42.622Z,14.80
2018-09-23T00:07:11.448Z,14.80
2018-09-23T00:09:41.024Z,14.90
2018-09-23T00:12:09.855Z,14.90
2018-09-23T00:14:38.695Z,15.00
2018-09-23T00:17:07.519Z,15.00
2018-09-23T00:19:37.092Z,14.90
2018-09-23T00:22:05.922Z,14.80
2018-09-23T00:24:34.759Z,14.80
2018-09-23T00:27:03.595Z,14.80
2018-09-23T00:29:33.162Z,14.70
2018-09-23T00:32:01.991Z,14.80
2018-09-23T00:34:31.562Z,14.70
2018-09-23T00:37:00.397Z,14.70
2018-09-23T00:39:29.227Z,14.70
2018-09-23T00:41:58.049Z,14.70
2018-09-23T00:44:27.630Z,14.70
2018-09-23T00:46:56.470Z,14.80
2018-09-23T00:49:25.300Z,14.70
2018-09-23T00:51:54.141Z,14.60
2018-09-23T00:54:22.972Z,14.60
2018-09-23T00:56:51.810Z,14.60
2018-09-23T00:59:20.659Z,14.60
2018-09-23T01:01:49.500Z,14.70
2018-09-23T01:04:18.325Z,14.60
2018-09-23T01:06:47.153Z,14.60
2018-09-23T01:09:15.990Z,14.60
2018-09-23T01:11:44.828Z,14.70
2018-09-23T01:14:14.413Z,14.50
2018-09-23T01:16:43.244Z,14.50
2018-09-23T01:19:12.080Z,14.50
2018-09-23T01:21:40.923Z,14.50
2018-09-23T01:24:09.767Z,14.40
2018-09-23T01:26:38.602Z,14.30
2018-09-23T01:29:07.439Z,14.30
2018-09-23T01:31:36.275Z,14.30
2018-09-23T01:34:05.842Z,14.30
2018-09-23T01:36:34.667Z,14.30
2018-09-23T01:39:03.491Z,14.30
2018-09-23T01:41:32.326Z,14.30
2018-09-23T01:44:01.184Z,14.20
2018-09-23T01:46:30.006Z,14.20
2018-09-23T01:48:59.795Z,14.10
2018-09-23T01:51:28.627Z,14.10
2018-09-23T01:53:57.466Z,14.10
2018-09-23T01:56:26.314Z,14.00
2018-09-23T01:58:55.139Z,14.00
2018-09-23T02:01:23.972Z,14.00
2018-09-23T02:03:52.813Z,14.00
2018-09-23T02:06:22.395Z,14.00
2018-09-23T02:08:51.226Z,14.00
2018-09-23T02:11:20.058Z,14.00
2018-09-23T02:13:48.887Z,13.90
2018-09-23T02:16:17.713Z,13.80
2018-09-23T02:18:47.320Z,13.80
2018-09-23T02:21:16.171Z,13.90
2018-09-23T02:23:44.995Z,13.80
2018-09-23T02:26:14.571Z,13.70
2018-09-23T02:28:43.701Z,13.60
2018-09-23T02:31:13.277Z,13.60
2018-09-23T02:33:42.111Z,13.60
2018-09-23T02:36:11.686Z,13.60
2018-09-23T02:38:40.521Z,13.60
2018-09-23T02:41:09.350Z,13.60
2018-09-23T02:46:07.027Z,13.60
2018-09-23T02:48:35.853Z,13.60
2018-09-23T02:51:04.692Z,13.50
2018-09-23T02:53:33.520Z,13.50
2018-09-23T02:56:02.366Z,13.50
2018-09-23T02:58:31.199Z,13.60
2018-09-23T03:01:00.021Z,13.50
2018-09-23T03:03:28.868Z,13.50
2018-09-23T03:05:57.698Z,13.40
2018-09-23T03:08:26.520Z,13.40
2018-09-23T03:10:55.348Z,13.30
2018-09-23T03:13:24.199Z,13.30
2018-09-23T03:15:53.026Z,13.40
2018-09-23T03:18:21.876Z,13.40
2018-09-23T03:20:50.706Z,13.40
2018-09-23T03:23:20.285Z,13.40
2018-09-23T03:25:49.128Z,13.40
2018-09-23T03:28:17.953Z,13.40
2018-09-23T03:30:46.783Z,13.30
2018-09-23T03:33:16.363Z,13.40
2018-09-23T03:35:45.199Z,13.40
2018-09-23T03:38:14.027Z,13.30
2018-09-23T03:40:42.873Z,13.40
2018-09-23T03:43:11.690Z,13.40
2018-09-23T03:45:40.524Z,13.40
2018-09-23T03:48:09.353Z,13.40
2018-09-23T03:50:38.187Z,13.30
2018-09-23T03:53:07.018Z,13.30
2018-09-23T03:55:35.847Z,13.30
2018-09-23T03:58:04.744Z,13.30
2018-09-23T04:00:33.520Z,13.30
2018-09-23T04:03:02.347Z,13.30
2018-09-23T04:05:31.927Z,13.30
2018-09-23T04:08:00.752Z,13.30
2018-09-23T04:10:29.584Z,13.30
2018-09-23T04:12:58.409Z,13.30
2018-09-23T04:15:27.240Z,13.30
2018-09-23T04:17:56.079Z,13.40
2018-09-23T04:20:24.917Z,13.40
2018-09-23T04:22:53.751Z,13.40
2018-09-23T04:25:22.580Z,13.40
2018-09-23T04:27:51.404Z,13.40
2018-09-23T04:30:20.242Z,13.40
2018-09-23T04:32:49.813Z,13.40
2018-09-23T04:35:18.648Z,13.40
2018-09-23T04:37:48.230Z,13.40
2018-09-23T04:40:17.060Z,13.50
2018-09-23T04:42:45.888Z,13.40
2018-09-23T04:45:14.722Z,13.40
2018-09-23T04:47:44.300Z,13.40
2018-09-23T04:52:44.221Z,13.50
2018-09-23T04:55:12.610Z,13.50
2018-09-23T04:57:41.388Z,13.60
2018-09-23T05:00:10.227Z,13.50
2018-09-23T05:02:39.066Z,13.60
2018-09-23T05:05:07.894Z,13.60
2018-09-23T05:07:36.737Z,13.60
2018-09-23T05:10:05.574Z,13.60
2018-09-23T05:12:35.168Z,13.60
2018-09-23T05:15:04.010Z,13.70
2018-09-23T05:17:32.849Z,13.70
2018-09-23T05:20:02.432Z,13.70
2018-09-23T05:22:31.274Z,13.70
2018-09-23T05:25:00.119Z,13.80
2018-09-23T05:27:28.948Z,13.80
2018-09-23T05:29:57.786Z,13.80
2018-09-23T05:32:26.620Z,13.90
2018-09-23T05:34:55.463Z,13.90
2018-09-23T05:37:24.298Z,14.00
2018-09-23T05:39:53.123Z,14.00
2018-09-23T05:42:21.965Z,14.00
2018-09-23T05:44:50.802Z,14.10
2018-09-23T05:47:19.646Z,14.20
2018-09-23T05:49:49.246Z,14.20
2018-09-23T05:52:18.101Z,14.20
2018-09-23T05:54:46.929Z,14.30
2018-09-23T05:57:15.778Z,14.30
2018-09-23T05:59:44.608Z,14.40
2018-09-23T06:02:13.442Z,14.40
2018-09-23T06:04:42.283Z,14.50
2018-09-23T06:07:11.116Z,14.50
2018-09-23T06:09:39.950Z,14.60
2018-09-23T06:12:09.549Z,14.60
2018-09-23T06:14:39.122Z,14.70
2018-09-23T06:17:07.957Z,14.80
2018-09-23T06:19:36.783Z,14.80
2018-09-23T06:22:05.797Z,14.90
2018-09-23T06:24:34.603Z,14.90
2018-09-23T06:27:03.440Z,15.00
2018-09-23T06:29:32.280Z,15.00
2018-09-23T06:32:01.117Z,15.10
2018-09-23T06:34:29.955Z,15.20
2018-09-23T06:39:28.212Z,15.40
2018-09-23T06:41:57.063Z,15.40
2018-09-23T06:44:25.894Z,15.50
2018-09-23T06:46:54.736Z,15.50
2018-09-23T06:49:23.576Z,15.60
2018-09-23T06:51:52.552Z,15.70
2018-09-23T06:54:22.015Z,15.70
2018-09-23T06:56:50.853Z,15.90
2018-09-23T06:59:19.660Z,16.00
2018-09-23T07:01:48.492Z,16.10
2018-09-23T07:04:18.072Z,16.10
2018-09-23T07:06:46.909Z,16.20
2018-09-23T07:09:15.751Z,16.30
2018-09-23T07:11:44.594Z,16.30
2018-09-23T07:14:13.439Z,16.40
2018-09-23T07:16:42.293Z,16.50
2018-09-23T07:19:11.135Z,16.50
2018-09-23T07:21:40.715Z,16.60
2018-09-23T07:24:09.596Z,16.70
2018-09-23T07:26:38.384Z,16.80
2018-09-23T07:29:07.214Z,16.80
2018-09-23T07:31:36.052Z,16.90
2018-09-23T07:34:04.915Z,16.90
2018-09-23T07:36:33.746Z,16.90
2018-09-23T07:39:02.603Z,17.00
2018-09-23T07:41:31.436Z,17.10
2018-09-23T07:44:01.040Z,17.10
2018-09-23T07:46:29.842Z,17.20
2018-09-23T07:48:59.421Z,17.20
2018-09-23T07:51:28.251Z,17.30
2018-09-23T07:53:57.107Z,17.50
2018-09-23T07:56:25.948Z,17.70
2018-09-23T07:58:54.767Z,17.80
2018-09-23T08:01:23.600Z,18.00
2018-09-23T08:03:53.180Z,18.00
2018-09-23T08:06:22.008Z,18.10
2018-09-23T08:08:50.845Z,18.10
2018-09-23T08:11:19.667Z,18.20
2018-09-23T08:13:48.666Z,18.20
2018-09-23T08:16:17.333Z,18.30
2018-09-23T08:18:46.945Z,18.40
2018-09-23T08:21:16.610Z,18.50
2018-09-23T08:23:45.363Z,18.60
2018-09-23T08:26:14.198Z,18.70
2018-09-23T08:28:43.046Z,18.90
2018-09-23T08:31:11.874Z,19.00
2018-09-23T08:33:40.710Z,19.10
2018-09-23T08:36:10.285Z,19.20
2018-09-23T08:38:39.120Z,19.30
2018-09-23T08:41:07.959Z,19.20
2018-09-23T08:43:36.791Z,19.20
2018-09-23T08:46:05.628Z,19.20
2018-09-23T08:48:34.463Z,19.20
2018-09-23T08:51:03.309Z,19.10
2018-09-23T08:53:32.143Z,19.10
2018-09-23T08:56:00.990Z,19.00
2018-09-23T08:58:29.825Z,18.90
2018-09-23T09:00:58.669Z,18.80
2018-09-23T09:03:27.525Z,18.80
2018-09-23T09:05:56.362Z,18.80
2018-09-23T09:08:25.188Z,18.80
2018-09-23T09:10:54.027Z,18.70
2018-09-23T09:13:22.851Z,18.70
2018-09-23T09:15:51.770Z,18.70
2018-09-23T09:18:20.543Z,18.70
2018-09-23T09:20:50.108Z,18.60
2018-09-23T09:23:19.010Z,18.70
2018-09-23T09:25:47.807Z,18.70
2018-09-23T09:28:17.476Z,18.70
2018-09-23T09:30:46.268Z,18.60
2018-09-23T09:33:15.127Z,18.60
2018-09-23T09:35:44.733Z,18.50
2018-09-23T09:38:13.542Z,18.60
2018-09-23T09:40:42.407Z,18.60
2018-09-23T09:43:11.250Z,18.60
2018-09-23T09:45:40.085Z,18.60
2018-09-23T09:48:08.924Z,18.60
2018-09-23T09:50:37.750Z,18.60
2018-09-23T09:53:06.599Z,18.60
2018-09-23T09:55:35.427Z,18.70
2018-09-23T09:58:04.280Z,18.80
2018-09-23T10:00:33.846Z,18.80
2018-09-23T10:03:02.677Z,18.90
2018-09-23T10:05:31.524Z,18.90
2018-09-23T10:08:00.363Z,18.90
2018-09-23T10:10:29.189Z,19.00
2018-09-23T10:12:58.018Z,19.00
2018-09-23T10:15:26.855Z,19.10
2018-09-23T10:17:55.706Z,19.20
2018-09-23T10:20:24.537Z,19.30
2018-09-23T10:22:53.444Z,19.30
2018-09-23T10:25:22.202Z,19.30
2018-09-23T10:27:51.774Z,19.30
2018-09-23T10:30:20.600Z,19.30
2018-09-23T10:32:49.433Z,19.30
2018-09-23T10:35:18.259Z,19.40
2018-09-23T10:37:47.127Z,19.30
2018-09-23T10:40:15.978Z,19.40
2018-09-23T10:42:44.805Z,19.40
2018-09-23T10:45:13.633Z,19.60
2018-09-23T10:47:42.464Z,19.70
2018-09-23T10:50:12.330Z,19.80
2018-09-23T10:52:41.154Z,19.90
2018-09-23T10:55:09.977Z,20.10
2018-09-23T10:57:38.797Z,20.30
2018-09-23T11:00:07.633Z,20.50
2018-09-23T11:02:36.458Z,20.50
2018-09-23T11:05:06.046Z,20.60
2018-09-23T11:07:34.878Z,20.60
2018-09-23T11:10:03.733Z,20.70
2018-09-23T11:15:01.986Z,21.00
2018-09-23T11:17:30.826Z,21.20
2018-09-23T11:19:59.674Z,21.30
2018-09-23T11:22:28.518Z,21.30
2018-09-23T11:24:57.522Z,21.40
2018-09-23T11:27:26.289Z,21.50
2018-09-23T11:29:55.858Z,21.50
2018-09-23T11:32:24.696Z,21.60
2018-09-23T11:34:53.541Z,21.60
2018-09-23T11:37:22.367Z,21.70
2018-09-23T11:39:51.972Z,21.60
2018-09-23T11:42:20.757Z,21.70
2018-09-23T11:44:50.340Z,21.80
2018-09-23T11:47:19.929Z,21.80
2018-09-23T11:49:48.760Z,21.90
2018-09-23T11:52:18.356Z,22.00
2018-09-23T11:54:47.927Z,22.10
2018-09-23T11:57:16.761Z,22.20
2018-09-23T11:59:45.607Z,22.20
2018-09-23T12:02:14.530Z,22.30
2018-09-23T12:04:43.275Z,22.60
2018-09-23T12:07:12.113Z,22.60
2018-09-23T12:09:41.699Z,22.60
2018-09-23T12:12:10.555Z,22.70
2018-09-23T12:14:39.398Z,22.80
2018-09-23T12:17:08.963Z,22.80
2018-09-23T12:19:37.809Z,22.80
2018-09-23T12:22:06.636Z,22.90
2018-09-23T12:24:35.465Z,23.00
2018-09-23T12:27:05.063Z,23.10
2018-09-23T12:29:34.691Z,23.10
2018-09-23T12:32:03.486Z,23.30
2018-09-23T12:34:32.320Z,23.20
2018-09-23T12:37:01.151Z,23.20
2018-09-23T12:39:30.759Z,23.20
2018-09-23T12:41:59.577Z,23.10
2018-09-23T12:44:28.406Z,23.10
2018-09-23T12:46:57.253Z,23.10
2018-09-23T12:49:26.111Z,23.10
2018-09-23T12:51:55.698Z,23.20
2018-09-23T12:54:24.531Z,23.40
2018-09-23T12:56:53.368Z,23.30
2018-09-23T12:59:22.205Z,23.30
2018-09-23T13:01:51.071Z,23.30
2018-09-23T13:04:19.865Z,23.40
2018-09-23T13:06:48.704Z,23.30
2018-09-23T13:09:17.540Z,23.30
2018-09-23T13:11:47.123Z,23.20
2018-09-23T13:14:15.973Z,23.00
2018-09-23T13:16:44.850Z,23.00
2018-09-23T13:19:14.434Z,23.10
2018-09-23T13:21:43.230Z,23.10
2018-09-23T13:24:12.820Z,23.10
2018-09-23T13:26:42.386Z,23.10
2018-09-23T13:29:11.240Z,23.20
2018-09-23T13:31:40.078Z,23.20
2018-09-23T13:34:08.925Z,23.30
2018-09-23T13:36:37.833Z,23.20
2018-09-23T13:41:36.780Z,23.00
2018-09-23T13:44:05.616Z,23.00
2018-09-23T13:46:34.466Z,22.90
2018-09-23T13:49:03.305Z,22.80
2018-09-23T13:51:32.131Z,22.80
2018-09-23T13:54:00.962Z,22.70
2018-09-23T13:56:29.822Z,22.60
2018-09-23T13:58:58.647Z,22.50
2018-09-23T14:01:27.517Z,22.50
2018-09-23T14:03:56.322Z,22.50
2018-09-23T14:06:25.149Z,22.50
2018-09-23T14:08:53.983Z,22.50
2018-09-23T14:11:23.579Z,22.40
2018-09-23T14:13:52.423Z,22.50
2018-09-23T14:16:21.306Z,22.50
2018-09-23T14:18:50.838Z,22.40
2018-09-23T14:21:19.663Z,22.40
2018-09-23T14:23:48.510Z,22.40
2018-09-23T14:26:17.346Z,22.40
2018-09-23T14:28:46.164Z,22.40
2018-09-23T14:31:14.994Z,22.40
2018-09-23T14:33:43.841Z,22.40
2018-09-23T14:36:12.684Z,22.40
2018-09-23T14:38:41.517Z,22.50
2018-09-23T14:41:10.356Z,22.60
2018-09-23T14:43:39.934Z,22.60
2018-09-23T14:46:08.794Z,22.60
2018-09-23T14:48:37.621Z,22.50
2018-09-23T14:51:06.481Z,22.40
2018-09-23T14:53:35.335Z,22.40
2018-09-23T14:56:04.931Z,22.30
2018-09-23T14:58:33.786Z,22.30
2018-09-23T15:01:02.608Z,22.30
2018-09-23T15:03:31.458Z,22.20
2018-09-23T15:06:00.354Z,22.30
2018-09-23T15:08:29.194Z,22.20
2018-09-23T15:10:58.844Z,22.20
2018-09-23T15:13:27.639Z,22.20
2018-09-23T15:15:56.482Z,22.20
2018-09-23T15:18:26.443Z,22.10
2018-09-23T15:20:55.301Z,22.10
2018-09-23T15:23:24.168Z,22.10
2018-09-23T15:25:53.022Z,19.10
2018-09-23T15:28:21.939Z,18.30
2018-09-23T15:30:50.775Z,18.10
2018-09-23T15:33:19.611Z,18.00
2018-09-23T15:35:49.205Z,17.90
2018-09-23T15:38:18.016Z,17.90
2018-09-23T15:40:47.583Z,17.90
2018-09-23T15:43:16.406Z,18.00
2018-09-23T15:45:45.286Z,18.00
2018-09-23T15:48:14.089Z,18.10
2018-09-23T15:50:43.658Z,18.10
2018-09-23T15:53:12.491Z,18.20
2018-09-23T15:55:42.081Z,18.20
2018-09-23T15:58:10.924Z,18.20
2018-09-23T16:00:39.756Z,18.20
2018-09-23T16:03:08.596Z,18.20
2018-09-23T16:05:37.426Z,18.20
2018-09-23T16:08:06.274Z,18.20
2018-09-23T16:10:35.328Z,18.30
2018-09-23T16:13:04.904Z,18.40
2018-09-23T16:15:33.734Z,18.40
2018-09-23T16:18:03.311Z,18.50
2018-09-23T16:20:32.144Z,18.50
2018-09-23T16:23:01.010Z,18.40
2018-09-23T16:25:30.579Z,18.40
2018-09-23T16:27:59.424Z,18.20
2018-09-23T16:30:28.259Z,18.10
2018-09-23T16:32:57.103Z,18.10
2018-09-23T16:35:25.952Z,17.90
2018-09-23T16:37:55.038Z,17.70
2018-09-23T16:40:23.882Z,17.50
2018-09-23T16:42:52.710Z,17.20
2018-09-23T16:45:21.549Z,17.00
2018-09-23T16:47:50.438Z,16.90
2018-09-23T16:50:19.223Z,16.80
2018-09-23T16:52:48.791Z,16.70
2018-09-23T16:55:17.617Z,16.50
2018-09-23T16:57:46.447Z,16.20
2018-09-23T17:00:15.282Z,15.90
2018-09-23T17:02:44.857Z,15.80
2018-09-23T17:05:13.705Z,15.70
2018-09-23T17:07:42.566Z,15.50
2018-09-23T17:10:11.435Z,15.40
2018-09-23T17:12:40.297Z,15.30
2018-09-23T17:15:09.142Z,15.20
2018-09-23T17:17:37.982Z,15.20
2018-09-23T17:20:06.817Z,15.20
2018-09-23T17:22:36.406Z,15.00
2018-09-23T17:25:10.966Z,15.00
2018-09-23T17:27:39.806Z,15.00
2018-09-23T17:30:08.698Z,14.90
2018-09-23T17:32:38.206Z,14.80
2018-09-23T17:37:37.267Z,14.70
2018-09-23T17:40:06.067Z,14.80
2018-09-23T17:42:34.912Z,14.80
2018-09-23T17:45:03.765Z,14.70
2018-09-23T17:47:32.618Z,14.60
2018-09-23T17:50:01.435Z,14.50
2018-09-23T17:52:30.276Z,14.50
2018-09-23T17:54:59.873Z,14.50
2018-09-23T17:57:28.710Z,14.40
2018-09-23T17:59:57.547Z,14.40
2018-09-23T18:02:26.389Z,14.30
2018-09-23T18:04:55.264Z,14.30
2018-09-23T18:07:24.847Z,14.20
2018-09-23T18:09:54.438Z,14.20
2018-09-23T18:14:52.703Z,14.20
2018-09-23T18:17:21.539Z,14.20
2018-09-23T18:19:51.143Z,14.10
2018-09-23T18:22:20.732Z,14.10
2018-09-23T18:24:49.570Z,14.10
2018-09-23T18:27:18.402Z,14.00
2018-09-23T18:29:47.256Z,14.00
2018-09-23T18:32:16.083Z,13.90
2018-09-23T18:34:45.527Z,13.90
2018-09-23T18:37:14.400Z,13.90
2018-09-23T18:39:43.204Z,13.90
2018-09-23T18:42:12.077Z,13.90
2018-09-23T18:44:40.884Z,13.90
2018-09-23T18:47:09.721Z,13.80
2018-09-23T18:49:38.547Z,13.70
2018-09-23T18:52:08.127Z,13.70
2018-09-23T18:54:36.976Z,13.60
2018-09-23T18:57:05.860Z,13.50
2018-09-23T18:59:34.687Z,13.60
2018-09-23T19:02:03.570Z,13.50
2018-09-23T19:04:32.375Z,13.40
2018-09-23T19:09:30.661Z,13.30
2018-09-23T19:11:59.491Z,13.30
2018-09-23T19:14:28.332Z,13.30
2018-09-23T19:16:57.188Z,13.30
2018-09-23T19:19:26.050Z,13.30
2018-09-23T19:21:55.637Z,13.20
2018-09-23T19:24:24.500Z,13.10
2018-09-23T19:26:53.361Z,13.10
2018-09-23T19:29:22.222Z,13.10
2018-09-23T19:31:51.037Z,13.00
2018-09-23T19:34:19.864Z,13.00
2018-09-23T19:36:48.711Z,13.00
2018-09-23T19:39:17.543Z,13.10
2018-09-23T19:44:15.821Z,13.00
2018-09-23T19:46:44.654Z,13.00
2018-09-23T19:49:14.251Z,13.00
2018-09-23T19:51:43.069Z,12.90
2018-09-23T19:54:11.941Z,12.80
2018-09-23T19:56:41.529Z,12.80
2018-09-23T19:59:10.377Z,12.80
2018-09-23T20:01:39.220Z,12.70
2018-09-23T20:04:08.070Z,12.70
2018-09-23T20:06:36.929Z,12.70
2018-09-23T20:09:06.496Z,12.70
2018-09-23T20:11:35.340Z,12.70
2018-09-23T20:14:04.180Z,12.80
2018-09-23T20:16:33.028Z,12.80
2018-09-23T20:19:01.909Z,12.80
2018-09-23T20:21:30.755Z,12.80
2018-09-23T20:24:00.389Z,12.80
2018-09-23T20:26:29.218Z,12.70
2018-09-23T20:28:58.071Z,12.70
2018-09-23T20:31:26.941Z,12.70
2018-09-23T20:33:55.769Z,12.70
2018-09-23T20:36:24.610Z,12.70
2018-09-23T20:38:54.267Z,12.60
2018-09-23T20:41:23.078Z,12.70
2018-09-23T20:43:51.962Z,12.70
2018-09-23T20:46:20.766Z,12.70
2018-09-23T20:48:49.598Z,12.70
2018-09-23T20:51:18.437Z,12.70
2018-09-23T20:53:47.334Z,12.70
2018-09-23T20:56:16.103Z,12.60
2018-09-23T20:58:44.939Z,12.60
2018-09-23T21:01:13.776Z,12.60
2018-09-23T21:03:42.612Z,12.50
2018-09-23T21:06:11.449Z,12.50
2018-09-23T21:08:40.294Z,12.40
2018-09-23T21:11:09.875Z,12.20
2018-09-23T21:13:38.729Z,12.20
2018-09-23T21:16:07.573Z,12.10
2018-09-23T21:18:36.399Z,12.10
2018-09-23T21:21:05.227Z,12.00
2018-09-23T21:23:34.066Z,11.90
2018-09-23T21:26:02.905Z,11.90
2018-09-23T21:28:31.766Z,11.80
2018-09-23T21:31:00.611Z,11.70
2018-09-23T21:33:29.460Z,11.70
2018-09-23T21:35:58.277Z,11.70
2018-09-23T21:38:27.109Z,11.70
2018-09-23T21:40:55.953Z,11.60
2018-09-23T21:43:25.536Z,11.50
2018-09-23T21:45:54.356Z,11.50
2018-09-23T21:48:23.435Z,11.50
2018-09-23T21:50:52.024Z,11.40
2018-09-23T21:53:20.873Z,11.30
2018-09-23T21:55:49.719Z,11.40
2018-09-23T21:58:18.548Z,11.30
2018-09-23T22:00:47.382Z,11.30
2018-09-23T22:03:16.243Z,11.30
2018-09-23T22:05:45.040Z,11.30
2018-09-23T22:08:13.875Z,11.30
2018-09-23T22:10:42.716Z,11.30
2018-09-23T22:13:11.560Z,11.30
2018-09-23T22:15:40.391Z,11.40
2018-09-23T22:18:09.244Z,11.30
2018-09-23T22:20:38.070Z,11.30
2018-09-23T22:23:06.895Z,11.30
2018-09-23T22:25:35.718Z,11.30
2018-09-23T22:28:04.549Z,11.30
2018-09-23T22:30:34.135Z,11.30
2018-09-23T22:33:02.965Z,11.30
2018-09-23T22:35:31.792Z,11.20
2018-09-23T22:38:00.618Z,11.20
2018-09-23T22:40:29.442Z,11.20
2018-09-23T22:42:58.295Z,11.10
2018-09-23T22:45:27.140Z,11.10
2018-09-23T22:47:55.987Z,11.10
2018-09-23T22:50:24.817Z,11.10
2018-09-23T22:52:53.655Z,11.00
2018-09-23T22:55:22.484Z,11.10
2018-09-23T22:57:51.348Z,11.10
2018-09-23T23:00:20.139Z,11.10
2018-09-23T23:02:48.993Z,11.30
2018-09-23T23:05:17.822Z,11.20
2018-09-23T23:07:46.652Z,11.30
2018-09-23T23:10:15.480Z,11.20
2018-09-23T23:12:45.058Z,11.20
2018-09-23T23:15:13.886Z,11.30
2018-09-23T23:17:43.459Z,11.30
2018-09-23T23:20:12.303Z,11.30
2018-09-23T23:22:41.135Z,11.20
2018-09-23T23:25:09.976Z,11.20
2018-09-23T23:27:38.812Z,11.20
2018-09-23T23:30:07.645Z,11.20
2018-09-23T23:32:36.477Z,11.20
2018-09-23T23:35:05.301Z,11.20
2018-09-23T23:37:34.874Z,11.10
2018-09-23T23:40:03.778Z,11.20
2018-09-23T23:42:32.617Z,11.20
2018-09-23T23:45:01.456Z,11.20
2018-09-23T23:47:30.296Z,11.10
2018-09-23T23:49:59.131Z,11.00
2018-09-23T23:52:27.969Z,11.10
2018-09-23T23:54:56.794Z,11.00
2018-09-23T23:57:25.625Z,11.00
2018-09-23T23:59:54.563Z,11.00
